createdAt,value
2023-05-08T04:13:21.978Z,3.78
2023-05-08T04:16:35.618Z,3.80
2023-05-08T04:19:51.793Z,4.10
2023-05-08T04:23:00.288Z,3.58
2023-05-08T04:26:09.899Z,3.40
2023-05-08T04:29:16.983Z,3.10
2023-05-08T04:32:27.072Z,2.97
2023-05-08T04:35:36.600Z,3.00
2023-05-08T04:38:43.479Z,3.37
2023-05-08T04:41:53.291Z,2.67
2023-05-08T04:45:00.705Z,3.20
2023-05-08T04:48:08.503Z,3.00
2023-05-08T04:51:15.623Z,2.85
2023-05-08T04:54:21.950Z,2.67
2023-05-08T04:57:31.035Z,2.70
2023-05-08T05:00:39.963Z,2.90
2023-05-08T05:03:47.374Z,3.10
2023-05-08T05:06:54.259Z,2.75
2023-05-08T05:10:03.422Z,2.80
2023-05-08T05:13:11.413Z,2.70
2023-05-08T05:16:20.381Z,2.30
2023-05-08T05:19:30.367Z,2.45
2023-05-08T05:22:39.049Z,2.70
2023-05-08T05:25:48.641Z,2.55
2023-05-08T05:28:55.734Z,2.40
2023-05-08T05:32:03.582Z,2.42
2023-05-08T05:35:27.559Z,2.60
2023-05-08T05:38:35.917Z,2.58
2023-05-08T05:41:45.600Z,2.35
2023-05-08T05:44:52.717Z,2.50
2023-05-08T05:47:57.134Z,2.10
2023-05-08T05:51:04.050Z,2.20
2023-05-08T05:54:09.346Z,2.15
2023-05-08T05:57:18.025Z,2.40
2023-05-08T06:00:24.060Z,2.22
2023-05-08T06:03:32.599Z,2.17
2023-05-08T06:06:38.728Z,2.25
2023-05-08T06:09:42.201Z,1.92
2023-05-08T06:12:46.995Z,2.22
2023-05-08T06:15:51.162Z,1.87
2023-05-08T06:18:57.101Z,2.10
2023-05-08T06:22:01.263Z,2.30
2023-05-08T06:25:06.982Z,1.77
2023-05-08T06:28:12.249Z,1.83
2023-05-08T06:31:19.174Z,2.00
2023-05-08T06:34:24.824Z,1.80
2023-05-08T06:37:27.971Z,2.00
2023-05-08T06:40:34.310Z,1.90
2023-05-08T06:43:37.556Z,2.20
2023-05-08T06:46:40.666Z,2.10
2023-05-08T06:49:44.792Z,2.00
2023-05-08T06:52:53.479Z,1.87
2023-05-08T06:56:01.887Z,2.10
2023-05-08T06:59:09.058Z,1.67
2023-05-08T07:02:17.683Z,2.30
2023-05-08T07:05:22.707Z,1.77
2023-05-08T07:08:27.995Z,2.00
2023-05-08T07:11:33.422Z,2.00
2023-05-08T07:14:39.846Z,1.85
2023-05-08T07:17:45.511Z,2.08
2023-05-08T07:20:48.842Z,1.80
2023-05-08T07:23:54.202Z,1.50
2023-05-08T07:26:59.619Z,1.80
2023-05-08T07:30:04.589Z,1.70
2023-05-08T07:33:09.244Z,1.50
2023-05-08T07:36:15.781Z,1.17
2023-05-08T07:39:22.392Z,1.20
2023-05-08T07:42:26.787Z,1.37
2023-05-08T07:45:30.314Z,1.25
2023-05-08T07:48:34.790Z,1.40
2023-05-08T07:51:40.574Z,1.23
2023-05-08T07:54:45.514Z,1.48
2023-05-08T07:57:52.654Z,1.50
2023-05-08T08:01:00.572Z,1.42
2023-05-08T08:04:09.152Z,1.60
2023-05-08T08:07:17.392Z,1.87
2023-05-08T08:10:23.182Z,1.33
2023-05-08T08:13:27.494Z,1.35
2023-05-08T08:16:34.605Z,1.60
2023-05-08T08:19:41.798Z,1.60
2023-05-08T08:22:50.472Z,1.50
2023-05-08T08:25:57.673Z,1.30
2023-05-08T08:29:06.638Z,1.10
2023-05-08T08:32:12.915Z,1.67
2023-05-08T08:35:19.934Z,1.40
2023-05-08T08:38:27.175Z,1.23
2023-05-08T08:41:36.253Z,1.17
2023-05-08T08:44:43.340Z,1.15
2023-05-08T08:47:53.547Z,0.82
2023-05-08T08:51:03.732Z,0.80
2023-05-08T08:54:15.325Z,0.98
2023-05-08T08:57:23.113Z,1.08
2023-05-08T09:00:33.254Z,0.60
2023-05-08T09:03:40.521Z,0.80
2023-05-08T09:06:46.567Z,0.80
2023-05-08T09:09:51.721Z,0.70
2023-05-08T09:12:55.764Z,0.90
2023-05-08T09:16:00.648Z,0.90
2023-05-08T09:19:06.059Z,0.65
2023-05-08T09:22:14.605Z,0.60
2023-05-08T09:25:21.523Z,0.62
2023-05-08T09:28:27.332Z,0.75
2023-05-08T09:31:37.889Z,0.80
2023-05-08T09:37:47.975Z,0.90
2023-05-08T09:41:16.819Z,0.65
2023-05-08T09:44:21.535Z,0.62
2023-05-08T09:47:26.015Z,0.57
2023-05-08T09:50:29.783Z,0.70
2023-05-08T09:53:32.895Z,0.60
2023-05-08T09:56:40.429Z,0.80
2023-05-08T09:59:44.851Z,1.10
2023-05-08T10:03:02.355Z,0.90
2023-05-08T10:06:17.470Z,0.88
2023-05-08T10:09:22.435Z,0.77
2023-05-08T10:12:27.347Z,0.77
2023-05-08T10:15:34.638Z,0.85
2023-05-08T10:18:47.365Z,0.80
2023-05-08T10:21:56.897Z,0.57
2023-05-08T10:25:04.274Z,0.68
2023-05-08T10:28:33.606Z,1.45
2023-05-08T10:31:44.569Z,0.90
2023-05-08T10:35:01.941Z,0.60
2023-05-08T10:38:12.683Z,0.60
2023-05-08T10:41:20.022Z,0.75
2023-05-08T10:44:31.605Z,0.60
2023-05-08T10:48:12.888Z,0.75
2023-05-08T10:51:27.792Z,0.70
2023-05-08T10:55:06.763Z,0.82
2023-05-08T10:58:17.421Z,0.93
2023-05-08T11:01:21.411Z,0.80
2023-05-08T11:04:24.726Z,0.90
2023-05-08T11:07:54.932Z,0.80
2023-05-08T11:11:08.316Z,0.82
2023-05-08T11:14:15.482Z,0.75
2023-05-08T11:17:25.015Z,0.90
2023-05-08T11:20:39.754Z,0.80
2023-05-08T11:23:42.767Z,0.70
2023-05-08T11:26:49.525Z,0.70
2023-05-08T11:30:20.952Z,0.60
2023-05-08T11:33:30.954Z,0.55
2023-05-08T11:39:41.413Z,0.60
2023-05-08T11:42:46.237Z,0.60
2023-05-08T11:45:49.466Z,0.90
2023-05-08T11:49:01.681Z,0.73
2023-05-08T11:52:06.450Z,0.73
2023-05-08T11:55:12.452Z,0.50
2023-05-08T11:58:17.405Z,0.80
2023-05-08T12:01:23.474Z,0.62
2023-05-08T12:04:27.409Z,0.73
2023-05-08T12:07:31.545Z,0.57
2023-05-08T12:10:47.057Z,0.65
2023-05-08T12:13:52.266Z,0.60
2023-05-08T12:16:57.176Z,0.80
2023-05-08T12:20:10.271Z,0.55
2023-05-08T12:23:14.946Z,0.60
2023-05-08T12:26:18.513Z,0.70
2023-05-08T12:29:23.158Z,0.62
2023-05-08T12:32:28.878Z,0.70
2023-05-08T12:35:34.051Z,0.68
2023-05-08T12:38:38.348Z,0.70
2023-05-08T12:41:49.388Z,0.62
2023-05-08T12:44:54.774Z,0.68
2023-05-08T12:48:04.288Z,0.70
2023-05-08T12:51:08.992Z,0.75
2023-05-08T12:54:13.403Z,0.70
2023-05-08T12:57:21.409Z,0.98
2023-05-08T13:00:26.416Z,0.90
2023-05-08T13:03:36.684Z,1.25
2023-05-08T13:10:04.106Z,1.00
2023-05-08T13:13:09.786Z,0.90
2023-05-08T13:16:14.964Z,0.93
2023-05-08T13:19:22.841Z,1.00
2023-05-08T13:22:55.663Z,1.35
2023-05-08T13:26:02.707Z,1.20
2023-05-08T13:29:09.031Z,0.82
2023-05-08T13:32:15.776Z,1.00
2023-05-08T13:35:21.614Z,1.25
2023-05-08T13:38:28.297Z,1.00
2023-05-08T13:41:33.778Z,1.70
2023-05-08T13:44:41.596Z,1.05
2023-05-08T13:47:50.307Z,0.88
2023-05-08T13:50:55.696Z,1.08
2023-05-08T13:53:59.598Z,0.90
2023-05-08T13:57:04.737Z,1.05
2023-05-08T14:00:15.444Z,1.17
2023-05-08T14:03:20.438Z,1.00
2023-05-08T14:06:25.398Z,0.90
2023-05-08T14:09:32.286Z,1.15
2023-05-08T14:12:41.343Z,1.10
2023-05-08T14:15:49.084Z,1.00
2023-05-08T14:18:57.798Z,0.98
2023-05-08T14:22:04.550Z,0.90
2023-05-08T14:25:12.749Z,1.00
2023-05-08T14:28:20.043Z,1.00
2023-05-08T14:31:29.410Z,1.08
2023-05-08T14:34:34.986Z,0.80
2023-05-08T14:37:44.490Z,0.80
2023-05-08T14:40:56.195Z,1.20
2023-05-08T14:44:04.256Z,0.90
2023-05-08T14:47:11.450Z,0.98
2023-05-08T14:50:24.874Z,0.80
2023-05-08T14:53:31.228Z,0.90
2023-05-08T15:00:09.424Z,0.82
2023-05-08T15:03:20.282Z,0.95
2023-05-08T15:06:27.043Z,0.93
2023-05-08T15:09:32.974Z,1.00
2023-05-08T15:12:39.079Z,1.15
2023-05-08T15:15:49.949Z,1.02
2023-05-08T15:18:57.572Z,0.90
2023-05-08T15:22:05.806Z,1.00
2023-05-08T15:25:14.153Z,0.90
2023-05-08T15:28:24.260Z,1.10
2023-05-08T15:31:35.586Z,1.10
2023-05-08T15:34:41.581Z,1.05
